sensor_id;sensor_type;location;lat;lon;timestamp;pressure;altitude;pressure_sealevel;temperature;humidity
42385;BME280;28042;43.986;22.860;2022-10-16T00:00:41;102065.44;;;6.69;100.00
42385;BME280;28042;43.986;22.860;2022-10-16T00:03:07;102060.16;;;6.67;100.00
42385;BME280;28042;43.986;22.860;2022-10-16T00:05:41;102084.72;;;6.66;100.00
42385;BME280;28042;43.986;22.860;2022-10-16T00:08:08;102072.56;;;6.60;100.00
42385;BME280;28042;43.986;22.860;2022-10-16T00:10:35;102068.56;;;6.55;100.00
42385;BME280;28042;43.986;22.860;2022-10-16T00:13:00;102064.28;;;6.52;100.00
42385;BME280;28042;43.986;22.860;2022-10-16T00:15:26;102068.69;;;6.43;100.00
42385;BME280;28042;43.986;22.860;2022-10-16T00:17:52;102065.69;;;6.46;100.00
42385;BME280;28042;43.986;22.860;2022-10-16T00:20:17;102010.78;;;6.14;100.00
42385;BME280;28042;43.986;22.860;2022-10-16T00:22:43;102036.53;;;6.29;100.00
42385;BME280;28042;43.986;22.860;2022-10-16T00:25:10;102065.22;;;6.41;100.00
42385;BME280;28042;43.986;22.860;2022-10-16T00:27:35;101992.47;;;5.97;100.00
42385;BME280;28042;43.986;22.860;2022-10-16T00:30:01;102043.09;;;6.27;100.00
42385;BME280;28042;43.986;22.860;2022-10-16T00:32:27;101978.72;;;5.88;100.00
42385;BME280;28042;43.986;22.860;2022-10-16T00:34:52;101986.13;;;5.86;100.00
42385;BME280;28042;43.986;22.860;2022-10-16T00:37:20;102044.81;;;6.07;100.00
42385;BME280;28042;43.986;22.860;2022-10-16T00:39:45;101993.69;;;5.83;100.00
42385;BME280;28042;43.986;22.860;2022-10-16T00:42:15;102036.16;;;6.13;100.00
42385;BME280;28042;43.986;22.860;2022-10-16T00:44:57;102018.19;;;6.12;100.00
42385;BME280;28042;43.986;22.860;2022-10-16T00:47:26;102038.34;;;6.19;100.00
42385;BME280;28042;43.986;22.860;2022-10-16T00:50:18;102037.91;;;6.23;100.00
42385;BME280;28042;43.986;22.860;2022-10-16T00:52:43;102039.34;;;6.18;100.00
42385;BME280;28042;43.986;22.860;2022-10-16T00:55:09;101997.53;;;5.90;100.00
42385;BME280;28042;43.986;22.860;2022-10-16T00:57:36;101988.38;;;5.81;100.00
42385;BME280;28042;43.986;22.860;2022-10-16T01:00:04;102043.44;;;6.12;100.00
42385;BME280;28042;43.986;22.860;2022-10-16T01:02:30;101996.59;;;5.70;100.00
42385;BME280;28042;43.986;22.860;2022-10-16T01:04:56;102002.00;;;5.70;100.00
42385;BME280;28042;43.986;22.860;2022-10-16T01:07:34;102063.34;;;6.02;100.00
42385;BME280;28042;43.986;22.860;2022-10-16T01:10:17;102076.19;;;6.00;100.00
42385;BME280;28042;43.986;22.860;2022-10-16T01:15:42;102051.63;;;5.91;100.00
42385;BME280;28042;43.986;22.860;2022-10-16T01:18:19;102076.69;;;5.93;100.00
42385;BME280;28042;43.986;22.860;2022-10-16T01:20:52;102070.78;;;5.88;100.00
42385;BME280;28042;43.986;22.860;2022-10-16T01:29:05;102082.38;;;5.90;100.00
42385;BME280;28042;43.986;22.860;2022-10-16T01:31:39;102012.44;;;5.54;100.00
42385;BME280;28042;43.986;22.860;2022-10-16T01:34:13;102077.84;;;5.80;100.00
42385;BME280;28042;43.986;22.860;2022-10-16T01:36:48;102089.41;;;5.82;100.00
42385;BME280;28042;43.986;22.860;2022-10-16T01:39:17;102060.84;;;5.68;100.00
42385;BME280;28042;43.986;22.860;2022-10-16T01:41:49;102039.78;;;5.51;100.00
42385;BME280;28042;43.986;22.860;2022-10-16T01:44:22;102089.31;;;5.83;100.00
42385;BME280;28042;43.986;22.860;2022-10-16T01:46:51;102094.97;;;5.80;100.00
42385;BME280;28042;43.986;22.860;2022-10-16T01:49:18;102089.09;;;5.75;100.00
42385;BME280;28042;43.986;22.860;2022-10-16T01:51:48;102095.50;;;5.74;100.00
42385;BME280;28042;43.986;22.860;2022-10-16T01:54:16;102099.78;;;5.77;100.00
42385;BME280;28042;43.986;22.860;2022-10-16T01:56:45;102112.28;;;5.68;100.00
42385;BME280;28042;43.986;22.860;2022-10-16T01:59:14;102058.44;;;5.33;100.00
42385;BME280;28042;43.986;22.860;2022-10-16T02:01:46;102061.06;;;5.23;100.00
42385;BME280;28042;43.986;22.860;2022-10-16T02:04:31;102103.53;;;5.44;100.00
42385;BME280;28042;43.986;22.860;2022-10-16T02:06:57;102113.16;;;5.36;100.00
42385;BME280;28042;43.986;22.860;2022-10-16T02:09:23;102095.53;;;5.21;100.00
42385;BME280;28042;43.986;22.860;2022-10-16T02:11:50;102049.75;;;4.86;100.00
42385;BME280;28042;43.986;22.860;2022-10-16T02:14:18;102119.09;;;5.19;100.00
42385;BME280;28042;43.986;22.860;2022-10-16T02:16:45;102116.28;;;5.21;100.00
42385;BME280;28042;43.986;22.860;2022-10-16T02:19:16;102108.56;;;5.16;100.00
42385;BME280;28042;43.986;22.860;2022-10-16T02:22:05;102126.47;;;5.28;100.00
42385;BME280;28042;43.986;22.860;2022-10-16T02:24:50;102138.03;;;5.30;100.00
42385;BME280;28042;43.986;22.860;2022-10-16T02:27:33;102064.63;;;4.92;100.00
42385;BME280;28042;43.986;22.860;2022-10-16T02:30:06;102149.41;;;5.13;100.00
42385;BME280;28042;43.986;22.860;2022-10-16T02:32:34;102082.41;;;4.62;100.00
42385;BME280;28042;43.986;22.860;2022-10-16T02:35:02;102070.97;;;4.47;100.00
42385;BME280;28042;43.986;22.860;2022-10-16T02:37:31;102139.97;;;4.85;100.00
42385;BME280;28042;43.986;22.860;2022-10-16T02:40:00;102142.91;;;4.93;100.00
42385;BME280;28042;43.986;22.860;2022-10-16T02:42:38;102133.47;;;4.88;100.00
42385;BME280;28042;43.986;22.860;2022-10-16T02:45:05;102130.75;;;4.88;100.00
42385;BME280;28042;43.986;22.860;2022-10-16T02:47:32;102138.34;;;4.94;100.00
42385;BME280;28042;43.986;22.860;2022-10-16T02:49:57;102134.47;;;4.87;100.00
42385;BME280;28042;43.986;22.860;2022-10-16T02:52:22;102099.81;;;4.58;100.00
42385;BME280;28042;43.986;22.860;2022-10-16T02:54:48;102098.00;;;4.47;100.00
42385;BME280;28042;43.986;22.860;2022-10-16T02:57:13;102129.56;;;4.69;100.00
42385;BME280;28042;43.986;22.860;2022-10-16T02:59:39;102137.44;;;4.61;100.00
42385;BME280;28042;43.986;22.860;2022-10-16T03:02:04;102149.44;;;4.68;100.00
42385;BME280;28042;43.986;22.860;2022-10-16T03:04:30;102146.88;;;4.67;100.00
42385;BME280;28042;43.986;22.860;2022-10-16T03:06:55;102099.34;;;4.42;100.00
42385;BME280;28042;43.986;22.860;2022-10-16T03:09:21;102135.81;;;4.70;100.00
42385;BME280;28042;43.986;22.860;2022-10-16T03:11:46;102112.34;;;4.59;100.00
42385;BME280;28042;43.986;22.860;2022-10-16T03:14:12;102144.78;;;4.81;100.00
42385;BME280;28042;43.986;22.860;2022-10-16T03:16:38;102155.34;;;4.96;100.00
42385;BME280;28042;43.986;22.860;2022-10-16T03:19:04;102092.22;;;4.63;100.00
42385;BME280;28042;43.986;22.860;2022-10-16T03:21:29;102157.50;;;5.02;100.00
42385;BME280;28042;43.986;22.860;2022-10-16T03:23:55;102159.13;;;5.04;100.00
42385;BME280;28042;43.986;22.860;2022-10-16T03:26:20;102151.25;;;5.01;100.00
42385;BME280;28042;43.986;22.860;2022-10-16T03:28:45;102108.03;;;4.79;100.00
42385;BME280;28042;43.986;22.860;2022-10-16T03:31:12;102173.97;;;5.10;100.00
42385;BME280;28042;43.986;22.860;2022-10-16T03:33:38;102117.16;;;4.78;100.00
42385;BME280;28042;43.986;22.860;2022-10-16T03:36:03;102123.16;;;4.81;100.00
42385;BME280;28042;43.986;22.860;2022-10-16T03:38:28;102183.22;;;5.07;100.00
42385;BME280;28042;43.986;22.860;2022-10-16T03:40:54;102181.13;;;5.00;100.00
42385;BME280;28042;43.986;22.860;2022-10-16T03:43:21;102178.69;;;4.97;100.00
42385;BME280;28042;43.986;22.860;2022-10-16T03:45:47;102180.53;;;4.85;100.00
42385;BME280;28042;43.986;22.860;2022-10-16T03:48:12;102159.50;;;4.77;100.00
42385;BME280;28042;43.986;22.860;2022-10-16T03:50:38;102119.25;;;4.41;100.00
42385;BME280;28042;43.986;22.860;2022-10-16T03:53:04;102127.59;;;4.49;100.00
42385;BME280;28042;43.986;22.860;2022-10-16T03:55:29;102119.97;;;4.43;100.00
42385;BME280;28042;43.986;22.860;2022-10-16T03:57:54;102178.44;;;4.77;100.00
42385;BME280;28042;43.986;22.860;2022-10-16T04:00:20;102173.16;;;4.65;100.00
42385;BME280;28042;43.986;22.860;2022-10-16T04:02:45;102120.09;;;4.19;100.00
42385;BME280;28042;43.986;22.860;2022-10-16T04:05:11;102191.72;;;4.47;100.00
42385;BME280;28042;43.986;22.860;2022-10-16T04:07:36;102129.53;;;4.02;100.00
42385;BME280;28042;43.986;22.860;2022-10-16T04:10:03;102175.97;;;4.30;100.00
42385;BME280;28042;43.986;22.860;2022-10-16T04:12:29;102189.88;;;4.36;100.00
42385;BME280;28042;43.986;22.860;2022-10-16T04:14:54;102163.44;;;4.29;100.00
42385;BME280;28042;43.986;22.860;2022-10-16T04:17:20;102187.03;;;4.27;100.00
42385;BME280;28042;43.986;22.860;2022-10-16T04:19:45;102179.88;;;4.25;100.00
42385;BME280;28042;43.986;22.860;2022-10-16T04:22:11;102138.38;;;4.04;100.00
42385;BME280;28042;43.986;22.860;2022-10-16T04:24:36;102150.41;;;4.11;100.00
42385;BME280;28042;43.986;22.860;2022-10-16T04:27:02;102164.91;;;4.21;100.00
42385;BME280;28042;43.986;22.860;2022-10-16T04:29:27;102187.25;;;4.23;100.00
42385;BME280;28042;43.986;22.860;2022-10-16T04:31:53;102138.34;;;3.93;100.00
42385;BME280;28042;43.986;22.860;2022-10-16T04:34:18;102206.19;;;4.35;100.00
42385;BME280;28042;43.986;22.860;2022-10-16T04:36:47;102198.09;;;4.35;100.00
42385;BME280;28042;43.986;22.860;2022-10-16T04:39:13;102139.59;;;4.00;100.00
42385;BME280;28042;43.986;22.860;2022-10-16T04:41:38;102190.94;;;4.34;100.00
42385;BME280;28042;43.986;22.860;2022-10-16T04:44:04;102190.22;;;4.32;100.00
42385;BME280;28042;43.986;22.860;2022-10-16T04:46:29;102199.81;;;4.47;100.00
42385;BME280;28042;43.986;22.860;2022-10-16T04:48:55;102157.78;;;4.20;100.00
42385;BME280;28042;43.986;22.860;2022-10-16T04:51:20;102208.91;;;4.46;100.00
42385;BME280;28042;43.986;22.860;2022-10-16T04:53:46;102141.81;;;4.06;100.00
42385;BME280;28042;43.986;22.860;2022-10-16T04:56:11;102137.63;;;4.02;100.00
42385;BME280;28042;43.986;22.860;2022-10-16T04:58:37;102216.03;;;4.47;100.00
42385;BME280;28042;43.986;22.860;2022-10-16T05:01:02;102220.19;;;4.40;100.00
42385;BME280;28042;43.986;22.860;2022-10-16T05:03:28;102211.22;;;4.39;100.00
42385;BME280;28042;43.986;22.860;2022-10-16T05:05:53;102150.88;;;4.05;100.00
42385;BME280;28042;43.986;22.860;2022-10-16T05:08:18;102156.53;;;4.13;100.00
42385;BME280;28042;43.986;22.860;2022-10-16T05:10:44;102226.50;;;4.63;100.00
42385;BME280;28042;43.986;22.860;2022-10-16T05:13:10;102228.59;;;4.70;100.00
42385;BME280;28042;43.986;22.860;2022-10-16T05:15:36;102240.38;;;4.80;100.00
42385;BME280;28042;43.986;22.860;2022-10-16T05:18:02;102233.72;;;4.73;100.00
42385;BME280;28042;43.986;22.860;2022-10-16T05:20:27;102183.13;;;4.53;100.00
42385;BME280;28042;43.986;22.860;2022-10-16T05:22:53;102205.47;;;4.77;100.00
42385;BME280;28042;43.986;22.860;2022-10-16T05:25:18;102188.63;;;4.85;100.00
42385;BME280;28042;43.986;22.860;2022-10-16T05:27:47;102184.22;;;4.95;100.00
42385;BME280;28042;43.986;22.860;2022-10-16T05:30:14;102259.50;;;5.45;100.00
42385;BME280;28042;43.986;22.860;2022-10-16T05:32:39;102221.66;;;5.22;100.00
42385;BME280;28042;43.986;22.860;2022-10-16T05:35:05;102235.31;;;5.32;100.00
42385;BME280;28042;43.986;22.860;2022-10-16T05:37:31;102217.47;;;5.18;100.00
42385;BME280;28042;43.986;22.860;2022-10-16T05:39:56;102257.66;;;5.45;100.00
42385;BME280;28042;43.986;22.860;2022-10-16T05:42:22;102215.03;;;5.15;100.00
42385;BME280;28042;43.986;22.860;2022-10-16T05:44:47;102244.50;;;5.41;100.00
42385;BME280;28042;43.986;22.860;2022-10-16T05:47:13;102193.88;;;5.09;100.00
42385;BME280;28042;43.986;22.860;2022-10-16T05:49:39;102208.88;;;5.24;100.00
42385;BME280;28042;43.986;22.860;2022-10-16T05:52:04;102212.69;;;5.22;100.00
42385;BME280;28042;43.986;22.860;2022-10-16T05:54:30;102218.44;;;5.28;100.00
42385;BME280;28042;43.986;22.860;2022-10-16T05:56:55;102228.00;;;5.44;100.00
42385;BME280;28042;43.986;22.860;2022-10-16T05:59:21;102220.13;;;5.52;100.00
42385;BME280;28042;43.986;22.860;2022-10-16T06:01:46;102283.25;;;5.95;100.00
42385;BME280;28042;43.986;22.860;2022-10-16T06:04:12;102294.44;;;6.02;100.00
42385;BME280;28042;43.986;22.860;2022-10-16T06:06:37;102267.59;;;5.99;100.00
42385;BME280;28042;43.986;22.860;2022-10-16T06:09:03;102277.84;;;6.28;100.00
42385;BME280;28042;43.986;22.860;2022-10-16T06:11:31;102278.16;;;6.34;100.00
42385;BME280;28042;43.986;22.860;2022-10-16T06:13:59;102255.03;;;6.30;100.00
42385;BME280;28042;43.986;22.860;2022-10-16T06:16:28;102293.63;;;6.64;100.00
42385;BME280;28042;43.986;22.860;2022-10-16T06:18:55;102299.03;;;6.85;100.00
42385;BME280;28042;43.986;22.860;2022-10-16T06:21:23;102244.41;;;6.69;100.00
42385;BME280;28042;43.986;22.860;2022-10-16T06:23:53;102237.50;;;6.86;100.00
42385;BME280;28042;43.986;22.860;2022-10-16T06:26:21;102279.78;;;7.28;100.00
42385;BME280;28042;43.986;22.860;2022-10-16T06:28:47;102306.31;;;7.55;100.00
42385;BME280;28042;43.986;22.860;2022-10-16T06:31:14;102299.50;;;7.71;100.00
42385;BME280;28042;43.986;22.860;2022-10-16T06:33:40;102303.09;;;7.81;100.00
42385;BME280;28042;43.986;22.860;2022-10-16T06:36:08;102257.59;;;7.63;100.00
42385;BME280;28042;43.986;22.860;2022-10-16T06:38:35;102320.56;;;8.07;100.00
42385;BME280;28042;43.986;22.860;2022-10-16T06:41:01;102264.94;;;7.92;100.00
42385;BME280;28042;43.986;22.860;2022-10-16T06:43:28;102318.91;;;8.35;100.00
42385;BME280;28042;43.986;22.860;2022-10-16T06:45:57;102263.94;;;8.12;100.00
42385;BME280;28042;43.986;22.860;2022-10-16T06:48:23;102316.59;;;8.50;100.00
42385;BME280;28042;43.986;22.860;2022-10-16T06:53:22;102329.44;;;8.87;100.00
42385;BME280;28042;43.986;22.860;2022-10-16T06:55:47;102318.56;;;8.87;100.00
42385;BME280;28042;43.986;22.860;2022-10-16T06:58:12;102334.25;;;9.12;100.00
42385;BME280;28042;43.986;22.860;2022-10-16T07:00:38;102275.31;;;8.84;100.00
42385;BME280;28042;43.986;22.860;2022-10-16T07:03:03;102335.13;;;9.13;99.76
42385;BME280;28042;43.986;22.860;2022-10-16T07:05:29;102329.28;;;9.35;99.25
42385;BME280;28042;43.986;22.860;2022-10-16T07:07:54;102330.72;;;9.29;98.28
42385;BME280;28042;43.986;22.860;2022-10-16T07:10:20;102272.03;;;9.17;97.48
42385;BME280;28042;43.986;22.860;2022-10-16T07:12:49;102295.16;;;9.41;96.61
42385;BME280;28042;43.986;22.860;2022-10-16T07:15:14;102264.28;;;9.50;96.11
42385;BME280;28042;43.986;22.860;2022-10-16T07:17:40;102314.16;;;9.78;94.93
42385;BME280;28042;43.986;22.860;2022-10-16T07:20:06;102317.63;;;9.70;95.72
42385;BME280;28042;43.986;22.860;2022-10-16T07:22:31;102291.03;;;9.82;95.10
42385;BME280;28042;43.986;22.860;2022-10-16T07:24:57;102340.00;;;10.19;94.42
42385;BME280;28042;43.986;22.860;2022-10-16T07:27:23;102329.22;;;10.00;93.53
42385;BME280;28042;43.986;22.860;2022-10-16T07:29:50;102345.69;;;10.08;94.85
42385;BME280;28042;43.986;22.860;2022-10-16T07:32:15;102282.78;;;9.91;94.46
42385;BME280;28042;43.986;22.860;2022-10-16T07:34:41;102326.53;;;10.35;93.74
42385;BME280;28042;43.986;22.860;2022-10-16T07:37:07;102280.47;;;10.32;92.85
42385;BME280;28042;43.986;22.860;2022-10-16T07:39:32;102301.25;;;10.69;90.93
42385;BME280;28042;43.986;22.860;2022-10-16T07:41:58;102326.88;;;11.02;90.34
42385;BME280;28042;43.986;22.860;2022-10-16T07:44:24;102340.16;;;11.23;89.25
42385;BME280;28042;43.986;22.860;2022-10-16T07:46:49;102319.03;;;11.33;87.82
42385;BME280;28042;43.986;22.860;2022-10-16T07:49:15;102283.06;;;11.12;86.48
42385;BME280;28042;43.986;22.860;2022-10-16T07:51:40;102333.88;;;11.65;86.44
42385;BME280;28042;43.986;22.860;2022-10-16T07:54:08;102286.16;;;11.51;84.41
42385;BME280;28042;43.986;22.860;2022-10-16T07:56:33;102324.31;;;11.69;84.81
42385;BME280;28042;43.986;22.860;2022-10-16T07:58:59;102283.91;;;11.46;84.23
42385;BME280;28042;43.986;22.860;2022-10-16T08:01:24;102340.00;;;12.01;83.10
42385;BME280;28042;43.986;22.860;2022-10-16T08:03:51;102310.06;;;11.83;82.29
42385;BME280;28042;43.986;22.860;2022-10-16T08:06:18;102322.41;;;11.61;82.46
42385;BME280;28042;43.986;22.860;2022-10-16T08:08:44;102311.03;;;11.74;82.50
42385;BME280;28042;43.986;22.860;2022-10-16T08:11:10;102302.88;;;11.82;81.79
42385;BME280;28042;43.986;22.860;2022-10-16T08:13:35;102348.78;;;12.29;80.78
42385;BME280;28042;43.986;22.860;2022-10-16T08:16:01;102340.59;;;12.37;79.36
42385;BME280;28042;43.986;22.860;2022-10-16T08:18:28;102316.31;;;12.26;78.61
42385;BME280;28042;43.986;22.860;2022-10-16T08:20:58;102298.81;;;12.02;79.35
42385;BME280;28042;43.986;22.860;2022-10-16T08:23:26;102303.25;;;11.95;79.89
42385;BME280;28042;43.986;22.860;2022-10-16T08:25:52;102279.16;;;12.07;78.90
42385;BME280;28042;43.986;22.860;2022-10-16T08:28:19;102296.13;;;12.43;77.94
42385;BME280;28042;43.986;22.860;2022-10-16T08:30:45;102293.72;;;12.64;77.44
42385;BME280;28042;43.986;22.860;2022-10-16T08:33:11;102304.66;;;12.89;75.73
42385;BME280;28042;43.986;22.860;2022-10-16T08:35:36;102342.63;;;12.92;76.43
42385;BME280;28042;43.986;22.860;2022-10-16T08:38:05;102337.81;;;13.10;75.39
42385;BME280;28042;43.986;22.860;2022-10-16T08:40:33;102359.03;;;13.16;74.50
42385;BME280;28042;43.986;22.860;2022-10-16T08:46:22;102350.84;;;13.24;74.08
42385;BME280;28042;43.986;22.860;2022-10-16T08:48:54;102342.63;;;13.24;72.88
42385;BME280;28042;43.986;22.860;2022-10-16T08:51:27;102354.25;;;13.26;73.02
42385;BME280;28042;43.986;22.860;2022-10-16T08:53:58;102359.81;;;13.57;72.70
42385;BME280;28042;43.986;22.860;2022-10-16T08:56:25;102353.84;;;13.93;71.70
42385;BME280;28042;43.986;22.860;2022-10-16T08:58:52;102356.50;;;14.09;70.10
42385;BME280;28042;43.986;22.860;2022-10-16T09:01:20;102349.78;;;14.12;70.44
42385;BME280;28042;43.986;22.860;2022-10-16T09:06:45;102360.38;;;13.92;71.08
42385;BME280;28042;43.986;22.860;2022-10-16T09:12:25;102311.72;;;14.09;68.00
42385;BME280;28042;43.986;22.860;2022-10-16T09:22:46;102353.81;;;14.24;67.65
42385;BME280;28042;43.986;22.860;2022-10-16T09:25:15;102307.09;;;14.09;68.11
42385;BME280;28042;43.986;22.860;2022-10-16T09:27:44;102348.28;;;14.32;68.01
42385;BME280;28042;43.986;22.860;2022-10-16T09:30:21;102357.03;;;14.59;67.10
42385;BME280;28042;43.986;22.860;2022-10-16T09:32:50;102344.72;;;14.55;66.60
42385;BME280;28042;43.986;22.860;2022-10-16T09:35:24;102343.16;;;14.75;65.50
42385;BME280;28042;43.986;22.860;2022-10-16T09:37:54;102340.84;;;15.02;64.94
42385;BME280;28042;43.986;22.860;2022-10-16T09:40:38;102290.88;;;14.68;64.65
42385;BME280;28042;43.986;22.860;2022-10-16T09:48:30;102301.69;;;14.85;63.81
42385;BME280;28042;43.986;22.860;2022-10-16T09:51:03;102337.09;;;15.32;62.57
42385;BME280;28042;43.986;22.860;2022-10-16T09:53:44;102338.63;;;15.49;61.98
42385;BME280;28042;43.986;22.860;2022-10-16T09:56:22;102320.72;;;15.39;63.11
42385;BME280;28042;43.986;22.860;2022-10-16T09:58:59;102334.81;;;15.80;61.20
42385;BME280;28042;43.986;22.860;2022-10-16T10:01:41;102286.63;;;15.54;61.44
42385;BME280;28042;43.986;22.860;2022-10-16T10:04:08;102333.91;;;16.09;60.32
42385;BME280;28042;43.986;22.860;2022-10-16T10:06:36;102303.84;;;16.07;59.43
42385;BME280;28042;43.986;22.860;2022-10-16T10:16:52;102316.03;;;16.62;57.75
42385;BME280;28042;43.986;22.860;2022-10-16T10:19:23;102260.44;;;16.59;56.64
42385;BME280;28042;43.986;22.860;2022-10-16T10:21:50;102305.16;;;17.04;56.15
42385;BME280;28042;43.986;22.860;2022-10-16T10:24:18;102289.34;;;16.91;54.96
42385;BME280;28042;43.986;22.860;2022-10-16T10:32:20;102267.34;;;16.48;56.00
42385;BME280;28042;43.986;22.860;2022-10-16T10:45:41;102289.13;;;17.55;51.81
42385;BME280;28042;43.986;22.860;2022-10-16T11:01:16;102233.94;;;17.62;49.78
42385;BME280;28042;43.986;22.860;2022-10-16T11:04:19;102269.19;;;17.60;50.21
42385;BME280;28042;43.986;22.860;2022-10-16T11:07:22;102261.25;;;17.85;48.64
42385;BME280;28042;43.986;22.860;2022-10-16T11:10:13;102258.13;;;18.07;48.24
42385;BME280;28042;43.986;22.860;2022-10-16T11:12:45;102263.44;;;18.22;47.70
42385;BME280;28042;43.986;22.860;2022-10-16T11:20:31;102254.31;;;18.28;47.54
42385;BME280;28042;43.986;22.860;2022-10-16T11:23:15;102246.47;;;18.45;46.67
42385;BME280;28042;43.986;22.860;2022-10-16T11:25:43;102222.63;;;18.64;45.85
42385;BME280;28042;43.986;22.860;2022-10-16T11:28:18;102250.91;;;18.99;45.01
42385;BME280;28042;43.986;22.860;2022-10-16T11:36:16;102244.13;;;18.95;43.07
42385;BME280;28042;43.986;22.860;2022-10-16T11:38:55;102256.44;;;19.06;43.78
42385;BME280;28042;43.986;22.860;2022-10-16T11:41:34;102248.22;;;19.44;43.33
42385;BME280;28042;43.986;22.860;2022-10-16T11:49:36;102198.94;;;19.21;41.10
42385;BME280;28042;43.986;22.860;2022-10-16T11:57:13;102195.13;;;19.15;41.77
42385;BME280;28042;43.986;22.860;2022-10-16T12:00:01;102236.75;;;19.40;41.34
42385;BME280;28042;43.986;22.860;2022-10-16T12:07:51;102237.38;;;19.87;41.39
42385;BME280;28042;43.986;22.860;2022-10-16T12:10:21;102211.84;;;19.85;40.50
42385;BME280;28042;43.986;22.860;2022-10-16T12:12:48;102193.78;;;19.76;40.33
42385;BME280;28042;43.986;22.860;2022-10-16T12:15:25;102239.59;;;19.72;41.22
42385;BME280;28042;43.986;22.860;2022-10-16T12:17:51;102231.38;;;19.97;40.86
42385;BME280;28042;43.986;22.860;2022-10-16T12:25:36;102229.44;;;19.66;41.34
42385;BME280;28042;43.986;22.860;2022-10-16T12:28:19;102225.66;;;19.47;40.95
42385;BME280;28042;43.986;22.860;2022-10-16T12:31:00;102187.81;;;19.28;41.90
42385;BME280;28042;43.986;22.860;2022-10-16T12:33:29;102168.59;;;19.46;40.74
42385;BME280;28042;43.986;22.860;2022-10-16T12:35:56;102183.13;;;19.35;41.00
42385;BME280;28042;43.986;22.860;2022-10-16T12:38:27;102216.53;;;19.40;41.25
42385;BME280;28042;43.986;22.860;2022-10-16T12:41:04;102212.41;;;19.56;41.31
42385;BME280;28042;43.986;22.860;2022-10-16T12:43:47;102222.78;;;19.73;40.87
42385;BME280;28042;43.986;22.860;2022-10-16T12:48:41;102223.97;;;19.46;40.68
42385;BME280;28042;43.986;22.860;2022-10-16T12:53:45;102208.91;;;19.29;40.97
42385;BME280;28042;43.986;22.860;2022-10-16T12:56:38;102215.97;;;19.18;41.16
42385;BME280;28042;43.986;22.860;2022-10-16T13:16:05;102217.94;;;19.62;40.00
42385;BME280;28042;43.986;22.860;2022-10-16T13:22:03;102213.31;;;19.43;40.77
42385;BME280;28042;43.986;22.860;2022-10-16T13:27:12;102162.66;;;19.36;41.22
42385;BME280;28042;43.986;22.860;2022-10-16T13:29:41;102163.50;;;19.43;41.05
42385;BME280;28042;43.986;22.860;2022-10-16T13:32:10;102160.06;;;19.47;40.47
42385;BME280;28042;43.986;22.860;2022-10-16T13:34:46;102216.41;;;19.73;40.30
42385;BME280;28042;43.986;22.860;2022-10-16T13:37:20;102170.13;;;19.35;40.55
42385;BME280;28042;43.986;22.860;2022-10-16T13:39:47;102172.47;;;19.38;40.46
42385;BME280;28042;43.986;22.860;2022-10-16T13:42:18;102211.13;;;19.52;40.45
42385;BME280;28042;43.986;22.860;2022-10-16T13:44:48;102172.06;;;19.28;40.11
42385;BME280;28042;43.986;22.860;2022-10-16T13:47:20;102174.03;;;19.21;40.83
42385;BME280;28042;43.986;22.860;2022-10-16T13:49:46;102176.84;;;19.01;40.09
42385;BME280;28042;43.986;22.860;2022-10-16T13:52:18;102212.09;;;19.26;40.03
42385;BME280;28042;43.986;22.860;2022-10-16T13:54:45;102183.22;;;19.02;40.38
42385;BME280;28042;43.986;22.860;2022-10-16T13:57:14;102182.44;;;18.95;40.38
42385;BME280;28042;43.986;22.860;2022-10-16T13:59:39;102207.88;;;19.16;40.35
42385;BME280;28042;43.986;22.860;2022-10-16T14:02:28;102228.31;;;19.22;40.63
42385;BME280;28042;43.986;22.860;2022-10-16T14:04:56;102233.84;;;19.09;40.57
42385;BME280;28042;43.986;22.860;2022-10-16T14:07:32;102225.59;;;18.96;40.93
42385;BME280;28042;43.986;22.860;2022-10-16T14:10:18;102246.66;;;19.03;40.80
42385;BME280;28042;43.986;22.860;2022-10-16T14:12:45;102219.41;;;18.93;41.22
42385;BME280;28042;43.986;22.860;2022-10-16T14:15:18;102243.69;;;18.91;41.48
42385;BME280;28042;43.986;22.860;2022-10-16T14:17:50;102252.22;;;18.83;41.90
42385;BME280;28042;43.986;22.860;2022-10-16T14:20:27;102212.25;;;18.59;41.63
42385;BME280;28042;43.986;22.860;2022-10-16T14:25:46;102236.91;;;18.54;42.35
42385;BME280;28042;43.986;22.860;2022-10-16T14:28:22;102183.75;;;18.19;42.55
42385;BME280;28042;43.986;22.860;2022-10-16T14:30:57;102224.56;;;18.44;42.85
42385;BME280;28042;43.986;22.860;2022-10-16T14:33:33;102230.50;;;18.41;43.14
42385;BME280;28042;43.986;22.860;2022-10-16T14:38:37;102231.13;;;18.23;44.09
42385;BME280;28042;43.986;22.860;2022-10-16T14:41:03;102242.00;;;18.24;44.08
42385;BME280;28042;43.986;22.860;2022-10-16T14:46:05;102199.63;;;17.77;44.86
42385;BME280;28042;43.986;22.860;2022-10-16T14:48:32;102189.56;;;17.63;45.32
42385;BME280;28042;43.986;22.860;2022-10-16T14:50:57;102227.88;;;17.79;45.83
42385;BME280;28042;43.986;22.860;2022-10-16T14:53:23;102241.91;;;17.85;45.80
42385;BME280;28042;43.986;22.860;2022-10-16T14:55:49;102188.91;;;17.48;46.12
42385;BME280;28042;43.986;22.860;2022-10-16T14:58:22;102240.97;;;17.64;46.69
42385;BME280;28042;43.986;22.860;2022-10-16T15:00:48;102195.84;;;17.31;47.29
42385;BME280;28042;43.986;22.860;2022-10-16T15:03:14;102206.81;;;17.17;47.54
42385;BME280;28042;43.986;22.860;2022-10-16T15:05:40;102258.28;;;17.45;47.66
42385;BME280;28042;43.986;22.860;2022-10-16T15:08:05;102219.16;;;17.21;47.73